createdAt,value
2023-03-15T00:02:27.502Z,98826.00
2023-03-15T00:04:55.528Z,98840.22
2023-03-15T00:07:25.954Z,98833.78
2023-03-15T00:09:53.981Z,98832.34
2023-03-15T00:12:23.173Z,98832.44
2023-03-15T00:14:51.375Z,98834.22
2023-03-15T00:17:19.303Z,98830.78
2023-03-15T00:19:48.110Z,98832.66
2023-03-15T00:22:16.103Z,98832.66
2023-03-15T00:24:45.499Z,98820.50
2023-03-15T00:27:13.402Z,98825.75
2023-03-15T00:29:41.281Z,98820.41
2023-03-15T00:32:09.196Z,98824.38
2023-03-15T00:34:37.137Z,98823.72
2023-03-15T00:37:05.122Z,98824.66
2023-03-15T00:39:37.795Z,98818.38
2023-03-15T00:42:07.498Z,98808.72
2023-03-15T00:44:35.449Z,98805.28
2023-03-15T00:47:03.340Z,98807.53
2023-03-15T00:49:31.245Z,98801.59
2023-03-15T00:51:59.145Z,98795.22
2023-03-15T00:54:27.047Z,98808.19
2023-03-15T00:56:54.879Z,98800.44
2023-03-15T00:59:24.186Z,98804.50
2023-03-15T01:01:52.232Z,98808.03
2023-03-15T01:04:20.124Z,98802.63
2023-03-15T01:06:47.970Z,98797.25
2023-03-15T01:09:15.901Z,98791.13
2023-03-15T01:11:43.809Z,98782.63
2023-03-15T01:14:11.741Z,98782.13
2023-03-15T01:16:41.235Z,98781.28
2023-03-15T01:19:09.137Z,98778.38
2023-03-15T01:21:37.038Z,98782.41
2023-03-15T01:24:04.974Z,98787.41
2023-03-15T01:26:32.881Z,98781.91
2023-03-15T01:29:00.773Z,98783.75
2023-03-15T01:31:31.289Z,98786.03
2023-03-15T01:34:01.002Z,98774.31
2023-03-15T01:36:29.061Z,98771.13
2023-03-15T01:38:57.016Z,98770.28
2023-03-15T01:41:25.957Z,98764.28
2023-03-15T01:43:53.932Z,98763.19
2023-03-15T01:46:27.002Z,98758.25
2023-03-15T01:49:04.972Z,98728.25
2023-03-15T01:51:37.493Z,98757.56
2023-03-15T01:54:09.058Z,98764.72
2023-03-15T01:56:41.561Z,98771.25
2023-03-15T01:59:15.371Z,98769.88
2023-03-15T02:01:45.732Z,98771.31
2023-03-15T02:04:19.054Z,98771.44
2023-03-15T02:06:48.735Z,98760.81
2023-03-15T02:09:22.180Z,98757.16
2023-03-15T02:11:50.085Z,98754.03
2023-03-15T02:14:18.655Z,98757.03
2023-03-15T02:16:46.621Z,98751.56
2023-03-15T02:19:31.962Z,98750.53
2023-03-15T02:22:08.026Z,98745.44
2023-03-15T02:24:47.939Z,98716.75
2023-03-15T02:27:16.403Z,98724.84
2023-03-15T02:29:45.770Z,98745.66
2023-03-15T02:32:13.675Z,98744.38
2023-03-15T02:34:41.581Z,98743.75
2023-03-15T02:37:09.560Z,98750.69
2023-03-15T02:39:37.464Z,98744.63
2023-03-15T02:42:06.059Z,98739.53
2023-03-15T02:44:36.234Z,98734.38
2023-03-15T02:47:08.954Z,98741.31
2023-03-15T02:49:41.953Z,98739.94
2023-03-15T02:52:12.216Z,98738.59
2023-03-15T02:54:43.250Z,98721.44
2023-03-15T02:57:11.210Z,98738.44
2023-03-15T02:59:39.320Z,98704.56
2023-03-15T03:02:09.276Z,98720.44
2023-03-15T03:04:37.179Z,98724.50
2023-03-15T03:07:05.187Z,98724.00
2023-03-15T03:09:33.171Z,98722.84
2023-03-15T03:12:01.130Z,98714.44
2023-03-15T03:14:29.051Z,98721.69
2023-03-15T03:16:57.217Z,98718.47
2023-03-15T03:19:26.610Z,98716.94
2023-03-15T03:21:54.753Z,98719.81
2023-03-15T03:24:25.840Z,98709.50
2023-03-15T03:26:58.131Z,98711.44
2023-03-15T03:29:26.732Z,98707.03
2023-03-15T03:31:54.931Z,98710.34
2023-03-15T03:34:22.901Z,98681.16
2023-03-15T03:36:52.228Z,98721.34
2023-03-15T03:39:20.269Z,98715.19
2023-03-15T03:41:48.156Z,98707.78
2023-03-15T03:44:16.095Z,98711.63
2023-03-15T03:46:44.011Z,98709.50
2023-03-15T03:49:11.880Z,98706.03
2023-03-15T03:51:39.853Z,98703.16
2023-03-15T03:54:09.129Z,98697.94
2023-03-15T03:56:37.959Z,98691.16
2023-03-15T03:59:05.914Z,98696.34
2023-03-15T04:01:33.853Z,98709.78
2023-03-15T04:04:01.768Z,98716.22
2023-03-15T04:06:29.680Z,98709.84
2023-03-15T04:08:57.576Z,98711.09
2023-03-15T04:11:27.146Z,98710.50
2023-03-15T04:13:55.233Z,98708.25
2023-03-15T04:16:24.810Z,98693.69
2023-03-15T04:18:56.465Z,98705.69
2023-03-15T04:21:24.506Z,98717.47
2023-03-15T04:23:52.442Z,98710.66
2023-03-15T04:26:20.360Z,98689.63
2023-03-15T04:28:49.646Z,98680.84
2023-03-15T04:31:17.671Z,98672.03
2023-03-15T04:33:45.578Z,98676.56
2023-03-15T04:36:18.461Z,98678.13
2023-03-15T04:38:47.602Z,98688.53
2023-03-15T04:41:16.055Z,98689.25
2023-03-15T04:43:44.103Z,98699.59
2023-03-15T04:46:13.481Z,98697.84
2023-03-15T04:48:41.707Z,98698.84
2023-03-15T04:51:09.590Z,98705.16
2023-03-15T04:53:39.097Z,98695.56
2023-03-15T04:56:08.039Z,98687.22
2023-03-15T04:58:36.005Z,98703.88
2023-03-15T05:01:03.935Z,98700.00
2023-03-15T05:03:33.310Z,98709.31
2023-03-15T05:06:08.038Z,98691.59
2023-03-15T05:08:36.789Z,98706.91
2023-03-15T05:11:05.090Z,98705.81
2023-03-15T05:13:33.286Z,98681.03
2023-03-15T05:16:01.208Z,98702.69
2023-03-15T05:18:29.815Z,98716.69
2023-03-15T05:20:59.279Z,98712.09
2023-03-15T05:23:27.349Z,98707.94
2023-03-15T05:25:56.726Z,98713.38
2023-03-15T05:28:25.952Z,98707.28
2023-03-15T05:30:54.463Z,98707.56
2023-03-15T05:33:22.968Z,98710.22
2023-03-15T05:35:50.996Z,98708.72
2023-03-15T05:38:20.417Z,98707.91
2023-03-15T05:40:48.351Z,98699.25
2023-03-15T05:43:16.214Z,98707.84
2023-03-15T05:45:44.760Z,98697.22
2023-03-15T05:48:12.762Z,98692.38
2023-03-15T05:50:40.691Z,98697.19
2023-03-15T05:53:08.666Z,98691.59
2023-03-15T05:55:38.670Z,98696.41
2023-03-15T05:58:06.573Z,98700.44
2023-03-15T06:00:34.736Z,98693.53
2023-03-15T06:03:02.739Z,98689.28
2023-03-15T06:05:30.718Z,98700.53
2023-03-15T06:07:58.640Z,98699.69
2023-03-15T06:10:26.725Z,98704.41
2023-03-15T06:12:56.039Z,98699.13
2023-03-15T06:15:24.069Z,98705.38
2023-03-15T06:17:51.936Z,98705.88
2023-03-15T06:20:20.403Z,98698.63
2023-03-15T06:22:48.889Z,98700.03
2023-03-15T06:25:17.155Z,98709.22
2023-03-15T06:27:45.160Z,98708.34
2023-03-15T06:30:17.112Z,98697.59
2023-03-15T06:32:45.253Z,98699.75
2023-03-15T06:35:13.195Z,98696.94
2023-03-15T06:37:41.916Z,98698.88
2023-03-15T06:40:12.129Z,98688.22
2023-03-15T06:42:41.681Z,98696.06
2023-03-15T06:45:10.911Z,98698.28
2023-03-15T06:47:40.317Z,98691.91
2023-03-15T06:50:09.354Z,98691.75
2023-03-15T06:52:37.358Z,98705.47
2023-03-15T06:55:06.053Z,98710.69
2023-03-15T06:57:33.960Z,98703.09
2023-03-15T07:00:07.071Z,98698.63
2023-03-15T07:02:37.708Z,98702.69
2023-03-15T07:05:08.000Z,98703.66
2023-03-15T07:07:35.926Z,98704.69
2023-03-15T07:10:04.491Z,98701.59
2023-03-15T07:12:32.414Z,98688.53
2023-03-15T07:15:00.328Z,98686.34
2023-03-15T07:17:28.289Z,98692.25
2023-03-15T07:19:56.986Z,98683.53
2023-03-15T07:22:26.680Z,98689.06
2023-03-15T07:24:54.660Z,98690.25
2023-03-15T07:27:22.561Z,98693.84
2023-03-15T07:29:50.459Z,98693.03
2023-03-15T07:32:18.603Z,98691.63
2023-03-15T07:34:46.563Z,98678.41
2023-03-15T07:37:14.571Z,98683.22
2023-03-15T07:39:44.204Z,98670.63
2023-03-15T07:42:12.844Z,98679.56
2023-03-15T07:44:40.753Z,98681.59
2023-03-15T07:47:09.241Z,98667.75
2023-03-15T07:49:37.145Z,98669.56
2023-03-15T07:52:05.478Z,98674.38
2023-03-15T07:54:34.404Z,98669.28
2023-03-15T07:57:03.721Z,98668.69
2023-03-15T07:59:32.347Z,98661.56
2023-03-15T08:02:02.840Z,98670.53
2023-03-15T08:04:31.002Z,98668.88
2023-03-15T08:06:58.999Z,98662.31
2023-03-15T08:09:26.903Z,98660.63
2023-03-15T08:11:54.817Z,98648.34
2023-03-15T08:14:24.681Z,98645.16
2023-03-15T08:16:52.853Z,98626.91
2023-03-15T08:19:22.286Z,98629.50
2023-03-15T08:21:53.863Z,98620.97
2023-03-15T08:24:22.603Z,98609.34
2023-03-15T08:26:51.304Z,98610.34
2023-03-15T08:29:19.330Z,98604.84
2023-03-15T08:31:48.688Z,98602.88
2023-03-15T08:34:17.201Z,98604.28
2023-03-15T08:36:47.378Z,98602.94
2023-03-15T08:39:15.413Z,98592.16
2023-03-15T08:41:43.671Z,98596.97
2023-03-15T08:44:11.898Z,98595.84
2023-03-15T08:46:39.906Z,98607.31
2023-03-15T08:49:09.245Z,98605.03
2023-03-15T08:51:37.162Z,98589.09
2023-03-15T08:54:05.288Z,98602.59
2023-03-15T08:56:33.796Z,98615.56
2023-03-15T08:59:01.770Z,98610.13
2023-03-15T09:01:30.889Z,98598.16
2023-03-15T09:03:58.830Z,98602.88
2023-03-15T09:06:28.719Z,98586.97
2023-03-15T09:08:56.840Z,98603.94
2023-03-15T09:11:24.713Z,98592.84
2023-03-15T09:13:52.686Z,98580.19
2023-03-15T09:16:20.573Z,98578.41
2023-03-15T09:18:48.554Z,98577.31
2023-03-15T09:21:16.914Z,98574.44
2023-03-15T09:23:46.202Z,98574.06
2023-03-15T09:26:14.131Z,98566.88
2023-03-15T09:28:41.985Z,98569.16
2023-03-15T09:31:10.057Z,98561.69
2023-03-15T09:33:38.678Z,98548.47
2023-03-15T09:36:07.091Z,98562.06
2023-03-15T09:38:35.047Z,98569.94
2023-03-15T09:41:04.864Z,98577.22
2023-03-15T09:43:53.238Z,98565.13
2023-03-15T09:46:28.929Z,98563.66
2023-03-15T09:49:03.967Z,98561.16
2023-03-15T09:51:40.729Z,98550.94
2023-03-15T09:54:13.435Z,98554.44
2023-03-15T09:56:47.304Z,98549.91
2023-03-15T09:59:17.820Z,98552.91
2023-03-15T10:01:46.518Z,98537.56
2023-03-15T10:04:24.369Z,98535.56
2023-03-15T10:06:56.424Z,98532.47
2023-03-15T10:09:26.707Z,98522.16
2023-03-15T10:12:05.231Z,98529.41
2023-03-15T10:15:08.391Z,98529.63
2023-03-15T10:17:42.262Z,98525.06
2023-03-15T10:20:16.176Z,98521.56
2023-03-15T10:22:51.271Z,98517.63
2023-03-15T10:25:23.565Z,98526.56
2023-03-15T10:27:57.326Z,98525.66
2023-03-15T10:30:26.739Z,98523.09
2023-03-15T10:33:01.282Z,98523.72
2023-03-15T10:35:29.685Z,98520.72
2023-03-15T10:37:57.642Z,98509.41
2023-03-15T10:40:41.374Z,98514.09
2023-03-15T10:43:19.376Z,98510.06
2023-03-15T10:46:00.994Z,98496.75
2023-03-15T10:48:30.351Z,98484.06
2023-03-15T10:50:59.340Z,98494.28
2023-03-15T10:53:27.344Z,98493.03
2023-03-15T10:56:05.363Z,98493.34
2023-03-15T10:58:43.246Z,98492.41
2023-03-15T11:01:23.298Z,98491.41
2023-03-15T11:04:03.322Z,98480.75
2023-03-15T11:06:42.093Z,98481.44
2023-03-15T11:09:12.179Z,98485.84
2023-03-15T11:11:52.053Z,98470.09
2023-03-15T11:14:21.838Z,98484.13
2023-03-15T11:16:52.286Z,98488.91
2023-03-15T11:19:24.168Z,98485.91
2023-03-15T11:21:52.677Z,98494.50
2023-03-15T11:24:31.521Z,98479.63
2023-03-15T11:27:01.806Z,98485.53
2023-03-15T11:29:33.310Z,98479.44
2023-03-15T11:32:02.412Z,98469.13
2023-03-15T11:34:40.267Z,98455.53
2023-03-15T11:37:15.838Z,98463.56
2023-03-15T11:39:50.319Z,98473.09
2023-03-15T11:42:26.215Z,98463.00
2023-03-15T11:44:59.305Z,98465.66
2023-03-15T11:47:36.289Z,98468.47
2023-03-15T11:50:04.885Z,98469.13
2023-03-15T11:52:33.157Z,98462.91
2023-03-15T11:55:03.741Z,98453.72
2023-03-15T11:57:41.573Z,98443.22
2023-03-15T12:00:49.213Z,98436.00
2023-03-15T12:03:49.445Z,98443.22
2023-03-15T12:06:38.588Z,98449.94
2023-03-15T12:09:40.708Z,98443.88
2023-03-15T12:12:39.020Z,98445.34
2023-03-15T12:15:36.432Z,98431.75
2023-03-15T12:18:06.436Z,98426.34
2023-03-15T12:20:37.873Z,98430.41
2023-03-15T12:23:30.003Z,98421.25
2023-03-15T12:26:00.250Z,98415.50
2023-03-15T12:28:35.173Z,98413.34
2023-03-15T12:31:06.907Z,98425.44
2023-03-15T12:33:46.660Z,98408.47
2023-03-15T12:36:30.661Z,98419.31
2023-03-15T12:39:20.881Z,98424.88
2023-03-15T12:41:50.193Z,98407.09
2023-03-15T12:44:28.226Z,98396.88
2023-03-15T12:47:01.218Z,98390.66
2023-03-15T12:49:35.050Z,98395.94
2023-03-15T12:52:05.622Z,98391.09
2023-03-15T12:54:40.523Z,98401.28
2023-03-15T12:57:12.335Z,98395.84
2023-03-15T12:59:49.383Z,98410.09
2023-03-15T13:02:39.614Z,98405.19
2023-03-15T13:05:23.556Z,98406.50
2023-03-15T13:07:59.839Z,98398.16
2023-03-15T13:10:57.172Z,98394.19
2023-03-15T13:13:46.123Z,98392.69
2023-03-15T13:16:27.916Z,98384.03
2023-03-15T13:19:05.457Z,98392.03
2023-03-15T13:21:36.395Z,98388.09
2023-03-15T13:24:13.910Z,98381.22
2023-03-15T13:26:52.189Z,98381.22
2023-03-15T13:29:26.229Z,98382.91
2023-03-15T13:32:03.796Z,98380.28
2023-03-15T13:34:34.228Z,98369.63
2023-03-15T13:37:03.308Z,98375.34
2023-03-15T13:39:33.591Z,98374.56
2023-03-15T13:42:03.672Z,98374.88
2023-03-15T13:44:33.216Z,98363.56
2023-03-15T13:47:02.661Z,98368.00
2023-03-15T13:49:35.006Z,98361.47
2023-03-15T13:52:12.056Z,98360.31
2023-03-15T13:54:42.090Z,98365.53
2023-03-15T13:57:15.058Z,98363.91
2023-03-15T13:59:48.645Z,98353.72
2023-03-15T14:02:21.678Z,98374.72
2023-03-15T14:04:53.632Z,98371.91
2023-03-15T14:07:29.229Z,98362.38
2023-03-15T14:10:23.006Z,98360.25
2023-03-15T14:12:52.268Z,98352.59
2023-03-15T14:15:23.513Z,98339.50
2023-03-15T14:18:02.095Z,98352.53
2023-03-15T14:20:33.661Z,98356.75
2023-03-15T14:23:03.125Z,98354.84
2023-03-15T14:25:35.776Z,98352.56
2023-03-15T14:28:04.768Z,98357.34
2023-03-15T14:30:36.601Z,98356.34
2023-03-15T14:33:07.614Z,98355.38
2023-03-15T14:35:46.139Z,98346.69
2023-03-15T14:38:20.065Z,98366.22
2023-03-15T14:40:48.763Z,98354.41
2023-03-15T14:43:16.842Z,98338.34
2023-03-15T14:45:48.719Z,98351.28
2023-03-15T14:48:27.517Z,98361.28
2023-03-15T14:50:55.840Z,98360.16
2023-03-15T14:53:26.178Z,98365.88
2023-03-15T14:55:54.107Z,98359.66
2023-03-15T14:58:23.496Z,98375.72
2023-03-15T15:00:53.790Z,98369.16
2023-03-15T15:03:39.577Z,98365.03
2023-03-15T15:06:09.837Z,98360.97
2023-03-15T15:08:40.147Z,98357.03
2023-03-15T15:11:09.447Z,98347.53
2023-03-15T15:13:38.697Z,98353.75
2023-03-15T15:16:07.614Z,98355.06
2023-03-15T15:18:38.200Z,98362.28
2023-03-15T15:21:13.920Z,98364.06
2023-03-15T15:23:57.486Z,98339.09
2023-03-15T15:26:27.887Z,98351.00
2023-03-15T15:28:56.614Z,98354.75
2023-03-15T15:31:27.028Z,98338.19
2023-03-15T15:33:57.822Z,98344.94
2023-03-15T15:36:29.904Z,98335.28
2023-03-15T15:39:01.299Z,98333.31
2023-03-15T15:41:31.578Z,98334.72
2023-03-15T15:43:59.654Z,98347.78
2023-03-15T15:46:28.052Z,98351.47
2023-03-15T15:48:58.822Z,98354.97
2023-03-15T15:51:29.415Z,98354.03
2023-03-15T15:53:59.699Z,98358.44
2023-03-15T15:56:32.824Z,98339.13
2023-03-15T15:59:01.883Z,98348.28
2023-03-15T16:01:29.826Z,98367.13
2023-03-15T16:03:59.188Z,98360.91
2023-03-15T16:06:27.368Z,98351.53
2023-03-15T16:08:56.299Z,98364.94
2023-03-15T16:11:24.503Z,98377.31
2023-03-15T16:13:54.535Z,98373.75
2023-03-15T16:16:23.209Z,98377.63
2023-03-15T16:18:51.118Z,98371.97
2023-03-15T16:21:27.916Z,98377.31
2023-03-15T16:24:00.366Z,98377.84
2023-03-15T16:26:28.818Z,98377.34
2023-03-15T16:28:56.813Z,98384.34
2023-03-15T16:31:24.879Z,98383.38
2023-03-15T16:33:52.763Z,98395.38
2023-03-15T16:36:23.393Z,98397.56
2023-03-15T16:38:51.332Z,98407.19
2023-03-15T16:41:19.278Z,98405.91
2023-03-15T16:43:49.220Z,98405.06
2023-03-15T16:46:18.192Z,98404.53
2023-03-15T16:48:46.256Z,98405.28
2023-03-15T16:51:17.008Z,98402.78
2023-03-15T16:53:46.501Z,98403.56
2023-03-15T16:56:16.449Z,98397.13
2023-03-15T16:58:45.633Z,98405.97
2023-03-15T17:01:13.620Z,98400.47
2023-03-15T17:03:41.545Z,98399.50
2023-03-15T17:06:20.083Z,98404.63
2023-03-15T17:08:50.049Z,98402.91
2023-03-15T17:11:19.209Z,98413.31
2023-03-15T17:13:47.401Z,98421.97
2023-03-15T17:16:16.744Z,98421.41
2023-03-15T17:18:46.102Z,98421.78
2023-03-15T17:21:15.449Z,98430.88
2023-03-15T17:23:44.001Z,98431.41
2023-03-15T17:26:17.781Z,98428.66
2023-03-15T17:28:46.854Z,98426.66
2023-03-15T17:31:25.340Z,98424.31
2023-03-15T17:33:53.703Z,98423.84
2023-03-15T17:36:24.594Z,98428.50
2023-03-15T17:38:53.125Z,98424.69
2023-03-15T17:41:25.403Z,98425.25
2023-03-15T17:43:53.615Z,98425.16
2023-03-15T17:46:28.107Z,98414.88
2023-03-15T17:48:56.559Z,98425.56
2023-03-15T17:51:26.672Z,98419.28
2023-03-15T17:53:55.636Z,98432.59
2023-03-15T17:56:24.940Z,98441.19
2023-03-15T17:58:53.424Z,98442.69
2023-03-15T18:01:23.431Z,98440.28
2023-03-15T18:03:52.266Z,98435.47
2023-03-15T18:06:21.293Z,98439.56
2023-03-15T18:08:49.746Z,98427.91
2023-03-15T18:11:31.944Z,98447.72
2023-03-15T18:13:59.921Z,98455.56
2023-03-15T18:16:28.063Z,98453.16
2023-03-15T18:18:56.065Z,98450.25
2023-03-15T18:21:27.422Z,98452.84
2023-03-15T18:23:55.679Z,98458.81
2023-03-15T18:26:24.001Z,98458.03
2023-03-15T18:28:53.269Z,98460.00
2023-03-15T18:31:22.770Z,98459.25
2023-03-15T18:33:52.594Z,98464.13
2023-03-15T18:36:21.087Z,98463.66
2023-03-15T18:38:49.393Z,98458.16
2023-03-15T18:41:20.657Z,98455.97
2023-03-15T18:43:51.497Z,98457.50
2023-03-15T18:46:22.731Z,98465.94
2023-03-15T18:48:53.367Z,98468.69
2023-03-15T18:51:25.691Z,98469.53
2023-03-15T18:53:54.138Z,98469.91
2023-03-15T18:56:24.011Z,98466.38
2023-03-15T18:58:53.645Z,98462.25
2023-03-15T19:01:24.455Z,98468.38
2023-03-15T19:03:53.878Z,98471.66
2023-03-15T19:06:22.834Z,98472.69
2023-03-15T19:08:54.193Z,98465.63
2023-03-15T19:11:24.021Z,98464.19
2023-03-15T19:13:52.241Z,98459.28
2023-03-15T19:16:20.719Z,98459.63
2023-03-15T19:18:51.106Z,98427.31
2023-03-15T19:21:19.327Z,98454.34
2023-03-15T19:23:47.866Z,98448.03
2023-03-15T19:26:15.893Z,98409.03
2023-03-15T19:28:43.945Z,98430.22
2023-03-15T19:31:12.521Z,98457.19
2023-03-15T19:33:40.539Z,98461.91
2023-03-15T19:36:10.818Z,98462.25
2023-03-15T19:38:38.851Z,98468.75
2023-03-15T19:41:10.777Z,98473.69
2023-03-15T19:43:42.390Z,98477.75
2023-03-15T19:46:13.786Z,98477.75
2023-03-15T19:48:42.282Z,98484.41
2023-03-15T19:51:11.603Z,98460.84
2023-03-15T19:53:39.571Z,98493.84
2023-03-15T19:56:09.574Z,98489.47
2023-03-15T19:58:37.481Z,98498.34
2023-03-15T20:01:05.801Z,98495.06
2023-03-15T20:03:34.911Z,98499.75
2023-03-15T20:06:08.258Z,98496.16
2023-03-15T20:08:37.521Z,98507.28
2023-03-15T20:11:06.778Z,98502.44
2023-03-15T20:13:35.302Z,98509.59
2023-03-15T20:16:04.091Z,98504.44
2023-03-15T20:18:32.417Z,98510.72
2023-03-15T20:21:00.359Z,98508.50
2023-03-15T20:23:28.570Z,98503.56
2023-03-15T20:26:06.876Z,98504.91
2023-03-15T20:28:34.828Z,98498.84
2023-03-15T20:31:07.504Z,98500.00
2023-03-15T20:33:35.390Z,98492.28
2023-03-15T20:36:03.589Z,98481.31
2023-03-15T20:38:34.341Z,98490.25
2023-03-15T20:41:02.462Z,98485.16
2023-03-15T20:43:32.948Z,98483.31
2023-03-15T20:46:04.400Z,98461.81
2023-03-15T20:48:35.036Z,98472.94
2023-03-15T20:51:07.171Z,98445.91
2023-03-15T20:53:36.525Z,98473.06
2023-03-15T20:56:06.401Z,98479.00
2023-03-15T20:58:35.737Z,98480.16
2023-03-15T21:01:07.637Z,98487.03
2023-03-15T21:03:35.936Z,98494.53
2023-03-15T21:06:06.149Z,98490.91
2023-03-15T21:08:34.928Z,98495.16
2023-03-15T21:11:03.382Z,98499.28
2023-03-15T21:13:31.446Z,98510.78
2023-03-15T21:16:04.060Z,98504.22
2023-03-15T21:18:33.026Z,98511.31
2023-03-15T21:21:02.405Z,98509.50
2023-03-15T21:23:31.555Z,98512.34
2023-03-15T21:26:02.022Z,98512.09
2023-03-15T21:28:30.693Z,98500.50
2023-03-15T21:31:00.507Z,98496.91
2023-03-15T21:33:31.076Z,98508.00
2023-03-15T21:36:00.484Z,98521.66
2023-03-15T21:38:29.071Z,98524.25
2023-03-15T21:40:59.335Z,98531.78
2023-03-15T21:43:28.614Z,98534.38
2023-03-15T21:45:56.918Z,98537.84
2023-03-15T21:48:26.354Z,98537.84
2023-03-15T21:50:54.559Z,98540.28
2023-03-15T21:53:22.772Z,98545.00
2023-03-15T21:55:50.834Z,98523.03
2023-03-15T21:58:19.078Z,98526.03
2023-03-15T22:00:47.024Z,98537.84
2023-03-15T22:03:17.817Z,98526.84
2023-03-15T22:05:48.059Z,98542.38
2023-03-15T22:08:15.954Z,98539.56
2023-03-15T22:10:43.906Z,98526.63
2023-03-15T22:13:11.782Z,98526.75
2023-03-15T22:15:39.677Z,98519.22
2023-03-15T22:18:07.623Z,98521.41
2023-03-15T22:20:35.506Z,98516.22
2023-03-15T22:23:05.004Z,98514.72
2023-03-15T22:25:33.041Z,98515.75
2023-03-15T22:28:01.805Z,98516.53
2023-03-15T22:30:29.744Z,98523.88
2023-03-15T22:32:57.734Z,98523.75
2023-03-15T22:35:25.839Z,98528.72
2023-03-15T22:37:56.553Z,98532.56
2023-03-15T22:40:27.951Z,98539.16
2023-03-15T22:42:57.514Z,98535.88
2023-03-15T22:45:26.075Z,98534.03
2023-03-15T22:47:54.308Z,98520.22
2023-03-15T22:50:22.282Z,98541.19
2023-03-15T22:52:51.857Z,98543.94
2023-03-15T22:55:20.701Z,98550.66
2023-03-15T22:57:50.054Z,98550.38
2023-03-15T23:00:22.243Z,98546.38
2023-03-15T23:02:50.712Z,98550.84
2023-03-15T23:05:19.609Z,98555.91
2023-03-15T23:07:47.788Z,98554.91
2023-03-15T23:10:16.353Z,98544.94
2023-03-15T23:12:44.278Z,98560.03
2023-03-15T23:15:15.194Z,98566.59
2023-03-15T23:17:46.663Z,98562.44
2023-03-15T23:20:17.210Z,98575.56
2023-03-15T23:22:45.841Z,98554.69
2023-03-15T23:25:15.700Z,98573.56
2023-03-15T23:27:43.590Z,98575.50
2023-03-15T23:30:14.379Z,98590.38
2023-03-15T23:32:42.969Z,98592.16
2023-03-15T23:35:13.268Z,98580.22
2023-03-15T23:37:41.301Z,98580.50
2023-03-15T23:40:15.232Z,98580.09
2023-03-15T23:42:44.005Z,98570.44
2023-03-15T23:45:15.293Z,98569.22
2023-03-15T23:47:43.938Z,98570.88
2023-03-15T23:50:13.856Z,98569.19
2023-03-15T23:52:42.291Z,98571.94
2023-03-15T23:55:11.129Z,98571.78
2023-03-15T23:57:39.024Z,98570.81
